Dudinka, Russia
Current Conditions -  °F | °C
As of 9:00 AM on Friday 19 Dec 2014 (Local Time) from USNN Reporting Station
Blowing Snow Blowing Snow  
Wind Chill:   Ceiling: 15000
Heat Index: 21°   Visibility: 6mi
Dew Point: 14°   Wind: 16mph
Humidity: 74%   Direction: 200°SSW
Pressure: 29.97"   Gusts: NA
Location:  69.41°N, 86.18°E
Report Text: USNN 190200Z 20007MPS 9999 DRSN BKN150 M06/M10 Q1015 NOSIG RMKQFE756 2135//42
Loading
Personal Weather Stations






























Interactive Weather Map New forecast layout! Learn more

10-Day Weather Forecast

Advertisements
Track Severe Weather on mobile